Map

Track Data

SID SEASON NUMBER BASIN SUBBASIN NAME ISO_TIME NATURE LAT LON WMO_WIND WMO_PRES WMO_AGENCY TRACK_TYPE DIST2LAND LANDFALL IFLAG USA_AGENCY USA_ATCF_ID USA_LAT USA_LON USA_RECORD USA_STATUS USA_WIND USA_PRES USA_SSHS USA_R34_NE USA_R34_SE USA_R34_SW USA_R34_NW USA_R50_NE USA_R50_SE USA_R50_SW USA_R50_NW USA_R64_NE USA_R64_SE USA_R64_SW USA_R64_NW USA_POCI USA_ROCI USA_RMW USA_EYE TOKYO_LAT TOKYO_LON TOKYO_GRADE TOKYO_WIND TOKYO_PRES TOKYO_R50_DIR TOKYO_R50_LONG TOKYO_R50_SHORT TOKYO_R30_DIR TOKYO_R30_LONG TOKYO_R30_SHORT TOKYO_LAND CMA_LAT CMA_LON CMA_CAT CMA_WIND CMA_PRES HKO_LAT HKO_LON HKO_CAT HKO_WIND HKO_PRES NEWDELHI_LAT NEWDELHI_LON NEWDELHI_GRADE NEWDELHI_WIND NEWDELHI_PRES NEWDELHI_CI NEWDELHI_DP NEWDELHI_POCI REUNION_LAT REUNION_LON REUNION_TYPE REUNION_WIND REUNION_PRES REUNION_TNUM REUNION_CI REUNION_RMW REUNION_R34_NE REUNION_R34_SE REUNION_R34_SW REUNION_R34_NW REUNION_R50_NE REUNION_R50_SE REUNION_R50_SW REUNION_R50_NW REUNION_R64_NE REUNION_R64_SE REUNION_R64_SW REUNION_R64_NW BOM_LAT BOM_LON BOM_TYPE BOM_WIND BOM_PRES BOM_TNUM BOM_CI BOM_RMW BOM_R34_NE BOM_R34_SE BOM_R34_SW BOM_R34_NW BOM_R50_NE BOM_R50_SE BOM_R50_SW BOM_R50_NW BOM_R64_NE BOM_R64_SE BOM_R64_SW BOM_R64_NW BOM_ROCI BOM_POCI BOM_EYE BOM_POS_METHOD BOM_PRES_METHOD NADI_LAT NADI_LON NADI_CAT NADI_WIND NADI_PRES WELLINGTON_LAT WELLINGTON_LON WELLINGTON_WIND WELLINGTON_PRES DS824_LAT DS824_LON DS824_STAGE DS824_WIND DS824_PRES TD9636_LAT TD9636_LON TD9636_STAGE TD9636_WIND TD9636_PRES TD9635_LAT TD9635_LON TD9635_WIND TD9635_PRES TD9635_ROCI NEUMANN_LAT NEUMANN_LON NEUMANN_CLASS NEUMANN_WIND NEUMANN_PRES MLC_LAT MLC_LON MLC_CLASS MLC_WIND MLC_PRES USA_GUST BOM_GUST BOM_GUST_PER REUNION_GUST REUNION_GUST_PER USA_SEAHGT USA_SEARAD_NE USA_SEARAD_SE USA_SEARAD_SW USA_SEARAD_NW STORM_SPEED STORM_DIR
2022048S14068 2022 10 SI MM EMNATI 2022-02-16 18:00:00 NR -14.1000 68.4000 PROVISIONAL 1320 1305 O_____________ tcvitals SI132022 -14.1000 68.4000 35 995 0 1001 135 20 3 240
2022048S14068 2022 10 SI MM EMNATI 2022-02-16 21:00:00 NR -14.1818 68.2502 PROVISIONAL 1305 1259 P_____________ SI132022 -14.1818 68.2502 40 993 0 1001 135 20 6 260
2022048S14068 2022 10 SI MM EMNATI 2022-02-17 00:00:00 NR -14.2000 67.8000 PROVISIONAL 1259 1185 O_____________ tcvitals SI132022 -14.2000 67.8000 45 992 0 35 40 40 60 1001 135 20 13 273
2022048S14068 2022 10 SI MM EMNATI 2022-02-17 03:00:00 NR -14.1159 66.8746 PROVISIONAL 1185 1106 P_____________ SI132022 -14.1159 66.8746 45 995 0 37 55 1002 190 25 20 276
2022048S14068 2022 10 SI MM EMNATI 2022-02-17 06:00:00 NR -14.0000 65.8000 PROVISIONAL 1098 1032 O_____________ tcvitals SI132022 -14.0000 65.8000 45 998 0 35 50 1004 245 30 19 275
2022048S14068 2022 10 SI MM EMNATI 2022-02-17 09:00:00 NR -13.9425 64.8952 PROVISIONAL 1032 979 P_____________ SI132022 -13.9425 64.8952 49 996 0 40 52 1004 245 22 16 274
2022048S14068 2022 10 SI MM EMNATI 2022-02-17 12:00:00 NR -13.9000 64.2000 PROVISIONAL 979 949 O_____________ tcvitals SI132022 -13.9000 64.2000 54 994 0 45 30 45 55 1004 245 14 10 274
2022048S14068 2022 10 SI MM EMNATI 2022-02-17 15:00:00 NR -13.8720 63.8252 PROVISIONAL 949 942 P_____________ SI132022 -13.8720 63.8252 57 990 0 40 27 60 95 1003 222 14 6 280
2022048S14068 2022 10 SI MM EMNATI 2022-02-17 18:00:00 NR -13.8000 63.6000 PROVISIONAL 943 936 O_____________ tcvitals SI132022 -13.8000 63.6000 60 986 0 35 25 75 135 1002 200 14 6 304
2022048S14068 2022 10 SI MM EMNATI 2022-02-17 21:00:00 NR -13.5474 63.3221 PROVISIONAL 948 938 P_____________ SI132022 -13.5474 63.3221 57 985 0 27 15 45 92 1000 200 12 7 304
2022048S14068 2022 10 SI MM EMNATI 2022-02-18 00:00:00 NR -13.4000 63.0000 PROVISIONAL 938 894 O_____________ tcvitals SI132022 -13.4000 63.0000 54 984 0 20 6 15 50 998 200 10 7 263
2022048S14068 2022 10 SI MM EMNATI 2022-02-18 03:00:00 NR -13.6401 62.5654 PROVISIONAL 894 827 P_____________ SI132022 -13.6401 62.5654 59 981 0 32 28 30 40 1001 275 10 11 236
2022048S14068 2022 10 SI MM EMNATI 2022-02-18 06:00:00 NR -14.0000 62.1000 PROVISIONAL 827 785 O_____________ tcvitals SI132022 -14.0000 62.1000 64 978 1 45 50 45 30 1005 350 10 10 238
2022048S14068 2022 10 SI MM EMNATI 2022-02-18 09:00:00 NR -14.1699 61.6995 PROVISIONAL 785 743 P_____________ SI132022 -14.1699 61.6995 69 976 1 47 52 55 30 1005 350 12 9 243
2022048S14068 2022 10 SI MM EMNATI 2022-02-18 12:00:00 NR -14.4000 61.3000 PROVISIONAL 743 673 O_____________ tcvitals SI132022 -14.4000 61.3000 74 975 1 50 55 65 30 1005 350 14 11 229
2022048S14068 2022 10 SI MM EMNATI 2022-02-18 15:00:00 NR -14.8850 60.8578 PROVISIONAL 673 598 P_____________ SI132022 -14.8850 60.8578 72 979 1 70 75 70 37 1005 345 14 13 221
2022048S14068 2022 10 SI MM EMNATI 2022-02-18 18:00:00 NR -15.4000 60.4000 PROVISIONAL 598 539 O_____________ tcvitals SI132022 -15.4000 60.4000 70 983 1 90 95 75 45 1006 340 14 13 225
2022048S14068 2022 10 SI MM EMNATI 2022-02-18 21:00:00 NR -15.7750 59.9350 PROVISIONAL 534 496 P_____________ SI132022 -15.7750 59.9350 70 981 1 80 85 75 50 1004 325 14 11 235
2022048S14068 2022 10 SI MM EMNATI 2022-02-19 00:00:00 NR -16.0000 59.5000 PROVISIONAL 496 485 O_____________ tcvitals SI132022 -16.0000 59.5000 70 980 1 70 75 75 55 1003 310 14 8 254
2022048S14068 2022 10 SI MM EMNATI 2022-02-19 03:00:00 NR -15.9998 59.1420 PROVISIONAL 482 473 P_____________ SI132022 -15.9998 59.1420 70 981 1 72 82 80 62 1004 312 12 7 270
2022048S14068 2022 10 SI MM EMNATI 2022-02-19 06:00:00 NR -16.0000 58.8000 PROVISIONAL 473 431 O_____________ tcvitals SI132022 -16.0000 58.8000 70 983 1 75 90 85 70 1006 315 10 8 248
2022048S14068 2022 10 SI MM EMNATI 2022-02-19 09:00:00 NR -16.2774 58.4153 PROVISIONAL 431 392 P_____________ SI132022 -16.2774 58.4153 70 981 1 75 90 85 70 1005 317 10 10 232
2022048S14068 2022 10 SI MM EMNATI 2022-02-19 12:00:00 NR -16.6000 58.0000 PROVISIONAL 392 369 O_____________ tcvitals SI132022 -16.6000 58.0000 70 980 1 75 90 85 70 1004 319 10 10 240
2022048S14068 2022 10 SI MM EMNATI 2022-02-19 15:00:00 NR -16.7726 57.5274 PROVISIONAL 369 359 P_____________ SI132022 -16.7726 57.5274 79 972 1 102 135 117 92 1004 294 7 9 251
2022048S14068 2022 10 SI MM EMNATI 2022-02-19 18:00:00 NR -16.9000 57.1000 PROVISIONAL 360 341 O_____________ tcvitals SI132022 -16.9000 57.1000 89 965 2 130 180 150 115 1005 270 5 7 246
2022048S14068 2022 10 SI MM EMNATI 2022-02-19 21:00:00 NR -17.0723 56.8350 PROVISIONAL 343 335 P_____________ SI132022 -17.0723 56.8350 97 958 3 132 167 160 115 1005 270 5 6 238
2022048S14068 2022 10 SI MM EMNATI 2022-02-20 00:00:00 NR -17.2000 56.6000 PROVISIONAL 338 338 O_____________ tcvitals SI132022 -17.2000 56.6000 105 952 3 135 155 170 115 1005 270 5 6 258
2022048S14068 2022 10 SI MM EMNATI 2022-02-20 03:00:00 NR -17.1925 56.2647 PROVISIONAL 348 348 P_____________ SI132022 -17.1925 56.2647 105 951 3 147 157 167 142 1005 265 5 7 270
2022048S14068 2022 10 SI MM EMNATI 2022-02-20 06:00:00 NR -17.2000 55.9000 PROVISIONAL 365 360 O_____________ tcvitals SI132022 -17.2000 55.9000 105 951 3 160 160 165 170 1005 260 5 7 253
2022048S14068 2022 10 SI MM EMNATI 2022-02-20 09:00:00 NR -17.4000 55.5428 PROVISIONAL 368 359 P_____________ SI132022 -17.4000 55.5428 110 946 3 150 160 142 137 1004 260 9 8 239
2022048S14068 2022 10 SI MM EMNATI 2022-02-20 12:00:00 NR -17.6000 55.2000 PROVISIONAL 369 369 O_____________ tcvitals SI132022 -17.6000 55.2000 115 941 4 140 160 120 105 1003 260 14 7 250
2022048S14068 2022 10 SI MM EMNATI 2022-02-20 15:00:00 NR -17.6224 54.8923 PROVISIONAL 382 382 P_____________ SI132022 -17.6224 54.8923 112 942 3 152 175 142 130 1003 260 13 6 270
2022048S14068 2022 10 SI MM EMNATI 2022-02-20 18:00:00 NR -17.6000 54.6000 PROVISIONAL 387 387 O_____________ tcvitals SI132022 -17.6000 54.6000 109 944 3 165 190 165 155 1003 260 12 6 269
2022048S14068 2022 10 SI MM EMNATI 2022-02-20 21:00:00 NR -17.6350 54.2925 PROVISIONAL 394 386 P_____________ SI132022 -17.6350 54.2925 107 946 3 162 187 155 162 1003 260 12 6 260
2022048S14068 2022 10 SI MM EMNATI 2022-02-21 00:00:00 NR -17.7000 54.0000 PROVISIONAL 393 390 O_____________ tcvitals SI132022 -17.7000 54.0000 105 948 3 160 185 145 170 1003 260 12 5 253
2022048S14068 2022 10 SI MM EMNATI 2022-02-21 03:00:00 NR -17.7848 53.7649 PROVISIONAL 390 389 P_____________ SI132022 -17.7848 53.7649 102 951 3 160 185 145 170 1004 267 12 5 247
2022048S14068 2022 10 SI MM EMNATI 2022-02-21 06:00:00 NR -17.9000 53.5000 PROVISIONAL 394 375 O_____________ tcvitals SI132022 -17.9000 53.5000 99 954 3 160 185 145 170 1005 275 12 7 248
2022048S14068 2022 10 SI MM EMNATI 2022-02-21 09:00:00 NR -18.0426 53.1076 PROVISIONAL 375 343 P_____________ SI132022 -18.0426 53.1076 99 953 3 147 175 147 172 1004 287 12 8 248
2022048S14068 2022 10 SI MM EMNATI 2022-02-21 12:00:00 NR -18.2000 52.7000 PROVISIONAL 343 313 O_____________ tcvitals SI132022 -18.2000 52.7000 99 953 3 135 165 150 175 1003 300 12 7 249
2022048S14068 2022 10 SI MM EMNATI 2022-02-21 15:00:00 NR -18.3048 52.3996 PROVISIONAL 313 286 P_____________ SI132022 -18.3048 52.3996 96 955 3 155 170 160 162 1003 300 8 6 242
2022048S14068 2022 10 SI MM EMNATI 2022-02-21 18:00:00 NR -18.5000 52.1000 PROVISIONAL 286 261 O_____________ tcvitals SI132022 -18.5000 52.1000 93 957 2 175 175 170 150 1003 300 5 9 225
2022048S14068 2022 10 SI MM EMNATI 2022-02-21 21:00:00 NR -18.9424 51.7304 PROVISIONAL 254 234 P_____________ SI132022 -18.9424 51.7304 91 958 2 162 172 167 142 1002 275 5 12 220
2022048S14068 2022 10 SI MM EMNATI 2022-02-22 00:00:00 NR -19.4000 51.3000 PROVISIONAL 234 190 O_____________ tcvitals SI132022 -19.4000 51.3000 89 960 2 150 170 165 135 1001 250 5 11 233
2022048S14068 2022 10 SI MM EMNATI 2022-02-22 03:00:00 NR -19.6076 50.7994 PROVISIONAL 190 151 P_____________ SI132022 -19.6076 50.7994 84 962 2 150 170 165 140 1001 245 5 10 247
2022048S14068 2022 10 SI MM EMNATI 2022-02-22 06:00:00 NR -19.8000 50.3000 PROVISIONAL 151 115 O_____________ tcvitals SI132022 -19.8000 50.3000 80 965 1 150 170 165 145 1001 240 5 10 238
2022048S14068 2022 10 SI MM EMNATI 2022-02-22 09:00:00 NR -20.1549 49.8774 PROVISIONAL 117 89 P_____________ SI132022 -20.1549 49.8774 77 967 1 150 170 162 127 1001 235 5 11 223
2022048S14068 2022 10 SI MM EMNATI 2022-02-22 12:00:00 NR -20.6000 49.5000 PROVISIONAL 94 83 O_____________ tcvitals SI132022 -20.6000 49.5000 74 970 1 150 170 160 110 1002 230 5 11 215
2022048S14068 2022 10 SI MM EMNATI 2022-02-22 15:00:00 NR -21.0775 49.1787 PROVISIONAL 83 56 P_____________ SI132022 -21.0775 49.1787 74 971 1 140 160 147 95 1002 230 5 12 213
2022048S14068 2022 10 SI MM EMNATI 2022-02-22 18:00:00 NR -21.6000 48.8000 PROVISIONAL 56 23 O_____________ tcvitals SI132022 -21.6000 48.8000 74 972 1 130 150 135 80 1002 230 5 14 219
2022048S14068 2022 10 SI MM EMNATI 2022-02-22 21:00:00 NR -22.1548 48.2502 PROVISIONAL 30 0 P_____________ SI132022 -22.1548 48.2502 70 974 1 16 225
2022048S14068 2022 10 SI MM EMNATI 2022-02-23 00:00:00 NR -22.6952 47.6089 PROVISIONAL 0 0 I_____________ tcvitals SI132022 -22.6952 47.6089 67 976 1 16 229
2022048S14068 2022 10 SI MM EMNATI 2022-02-23 03:00:00 NR -23.1923 46.9402 PROVISIONAL 0 0 P_____________ SI132022 -23.1923 46.9402 63 978 0 15 233
2022048S14068 2022 10 SI MM EMNATI 2022-02-23 06:00:00 NR -23.6000 46.3000 PROVISIONAL 0 0 O_____________ tcvitals SI132022 -23.6000 46.3000 60 980 0 160 170 150 65 1002 215 5 12 236
2022048S14068 2022 10 SI MM EMNATI 2022-02-23 09:00:00 NR -23.8717 45.8356 PROVISIONAL 0 0 P_____________ SI132022 -23.8717 45.8356 57 981 0 140 172 147 75 1002 202 5 10 241
2022048S14068 2022 10 SI MM EMNATI 2022-02-23 12:00:00 NR -24.1000 45.3000 PROVISIONAL 0 0 O_____________ tcvitals SI132022 -24.1000 45.3000 54 983 0 120 175 145 85 1002 190 5 15 248
2022048S14068 2022 10 SI MM EMNATI 2022-02-23 15:00:00 NR -24.4244 44.3263 PROVISIONAL 0 0 P_____________ SI132022 -24.4244 44.3263 49 988 0 72 105 112 72 1004 155 12 17 250
2022048S14068 2022 10 SI MM EMNATI 2022-02-23 18:00:00 NR -24.7000 43.5000 PROVISIONAL 32 32 O_____________ tcvitals SI132022 -24.7000 43.5000 45 994 0 25 35 80 60 1006 120 20 9 253
2022048S14068 2022 10 SI MM EMNATI 2022-02-23 21:00:00 NR -24.6866 43.4012 PROVISIONAL 41 32 P_____________ SI132022 -24.6866 43.4012 48 990 0 65 85 103 77 1006 161 22 2 172
2022048S14068 2022 10 SI MM EMNATI 2022-02-24 00:00:00 NR -24.9000 43.5000 PROVISIONAL 45 45 O_____________ tcvitals SI132022 -24.9000 43.5000 51 987 0 105 135 126 95 1006 202 25 12 185
2022048S14068 2022 10 SI MM EMNATI 2022-02-24 03:00:00 NR -25.8677 43.2887 PROVISIONAL 122 122 P_____________ SI132022 -25.8677 43.2887 48 987 0 132 185 165 122 1007 226 52 22 192
2022048S14068 2022 10 SI MM EMNATI 2022-02-24 06:00:00 NR -27.0000 43.0000 PROVISIONAL 235 235 O_____________ tcvitals SI132022 -27.0000 43.0000 45 988 0 160 235 205 150 1008 250 80 20 194
2022048S14068 2022 10 SI MM EMNATI 2022-02-24 09:00:00 NR -27.7773 42.7369 PROVISIONAL 326 326 P_____________ SI132022 -27.7773 42.7369 48 984 0 235 210 1006 245 80 14 199
2022048S14068 2022 10 SI MM EMNATI 2022-02-24 12:00:00 NR -28.3000 42.5000 PROVISIONAL 384 O_____________ tcvitals SI132022 -28.3000 42.5000 51 980 0 235 215 1005 240 80 11 202

About IBTrACS Database

This database is a web-friendly format of International Best Track Archive for Climate Stewardship (IBTrACS), a global best track data archive curated by NOAA dating back to 1842.

Updated: 2022-05-26